sensor_id;sensor_type;location;lat;lon;timestamp;P1;durP1;ratioP1;P2;durP2;ratioP2
57800;SDS011;43627;42.728;23.256;2023-04-29T00:01:18;11.23;;;5.05;;
57800;SDS011;43627;42.728;23.256;2023-04-29T00:03:46;7.55;;;4.68;;
57800;SDS011;43627;42.728;23.256;2023-04-29T00:06:13;11.32;;;4.82;;
57800;SDS011;43627;42.728;23.256;2023-04-29T00:08:40;9.02;;;4.75;;
57800;SDS011;43627;42.728;23.256;2023-04-29T00:11:08;9.98;;;5.35;;
57800;SDS011;43627;42.728;23.256;2023-04-29T00:13:36;9.35;;;4.57;;
57800;SDS011;43627;42.728;23.256;2023-04-29T00:16:06;12.77;;;4.70;;
57800;SDS011;43627;42.728;23.256;2023-04-29T00:18:34;11.63;;;4.55;;
57800;SDS011;43627;42.728;23.256;2023-04-29T00:21:02;11.05;;;4.85;;
57800;SDS011;43627;42.728;23.256;2023-04-29T00:23:32;10.50;;;5.18;;
57800;SDS011;43627;42.728;23.256;2023-04-29T00:25:59;9.32;;;4.35;;
57800;SDS011;43627;42.728;23.256;2023-04-29T00:28:26;9.60;;;3.97;;
57800;SDS011;43627;42.728;23.256;2023-04-29T00:30:53;10.10;;;4.28;;
57800;SDS011;43627;42.728;23.256;2023-04-29T00:33:21;13.57;;;4.97;;
57800;SDS011;43627;42.728;23.256;2023-04-29T00:35:48;13.05;;;5.50;;
57800;SDS011;43627;42.728;23.256;2023-04-29T00:38:15;15.10;;;5.68;;
57800;SDS011;43627;42.728;23.256;2023-04-29T00:40:43;13.55;;;5.90;;
57800;SDS011;43627;42.728;23.256;2023-04-29T00:43:09;12.50;;;5.97;;
57800;SDS011;43627;42.728;23.256;2023-04-29T00:45:36;18.73;;;6.05;;
57800;SDS011;43627;42.728;23.256;2023-04-29T00:48:03;16.52;;;7.03;;
57800;SDS011;43627;42.728;23.256;2023-04-29T00:50:30;10.43;;;5.80;;
57800;SDS011;43627;42.728;23.256;2023-04-29T00:52:58;17.75;;;5.85;;
57800;SDS011;43627;42.728;23.256;2023-04-29T00:55:25;10.23;;;5.07;;
57800;SDS011;43627;42.728;23.256;2023-04-29T00:57:52;15.57;;;5.47;;
57800;SDS011;43627;42.728;23.256;2023-04-29T01:00:19;12.63;;;6.43;;
57800;SDS011;43627;42.728;23.256;2023-04-29T01:02:46;13.80;;;5.60;;
57800;SDS011;43627;42.728;23.256;2023-04-29T01:05:14;14.50;;;5.85;;
57800;SDS011;43627;42.728;23.256;2023-04-29T01:07:47;13.38;;;5.93;;
57800;SDS011;43627;42.728;23.256;2023-04-29T01:10:28;13.32;;;6.03;;
57800;SDS011;43627;42.728;23.256;2023-04-29T01:15:56;11.55;;;4.70;;
57800;SDS011;43627;42.728;23.256;2023-04-29T01:18:33;13.98;;;5.65;;
57800;SDS011;43627;42.728;23.256;2023-04-29T01:21:04;14.13;;;5.57;;
57800;SDS011;43627;42.728;23.256;2023-04-29T01:23:31;14.43;;;5.53;;
57800;SDS011;43627;42.728;23.256;2023-04-29T01:25:58;10.30;;;5.13;;
57800;SDS011;43627;42.728;23.256;2023-04-29T01:28:40;16.35;;;5.55;;
57800;SDS011;43627;42.728;23.256;2023-04-29T01:31:31;11.02;;;5.93;;
57800;SDS011;43627;42.728;23.256;2023-04-29T01:34:22;9.60;;;5.43;;
57800;SDS011;43627;42.728;23.256;2023-04-29T01:39:30;11.57;;;5.72;;
57800;SDS011;43627;42.728;23.256;2023-04-29T01:45:00;13.60;;;6.35;;
57800;SDS011;43627;42.728;23.256;2023-04-29T01:47:31;14.95;;;5.60;;
57800;SDS011;43627;42.728;23.256;2023-04-29T01:49:59;14.60;;;6.03;;
57800;SDS011;43627;42.728;23.256;2023-04-29T01:52:26;14.43;;;5.72;;
57800;SDS011;43627;42.728;23.256;2023-04-29T01:54:53;16.70;;;6.43;;
57800;SDS011;43627;42.728;23.256;2023-04-29T01:57:20;13.13;;;6.22;;
57800;SDS011;43627;42.728;23.256;2023-04-29T01:59:47;14.75;;;5.95;;
57800;SDS011;43627;42.728;23.256;2023-04-29T02:02:14;11.02;;;6.25;;
57800;SDS011;43627;42.728;23.256;2023-04-29T02:04:41;12.27;;;5.97;;
57800;SDS011;43627;42.728;23.256;2023-04-29T02:07:08;16.17;;;5.75;;
57800;SDS011;43627;42.728;23.256;2023-04-29T02:09:35;13.23;;;6.22;;
57800;SDS011;43627;42.728;23.256;2023-04-29T02:12:01;16.88;;;6.07;;
57800;SDS011;43627;42.728;23.256;2023-04-29T02:14:29;12.38;;;5.70;;
57800;SDS011;43627;42.728;23.256;2023-04-29T02:16:57;13.20;;;5.60;;
57800;SDS011;43627;42.728;23.256;2023-04-29T02:19:23;10.93;;;5.75;;
57800;SDS011;43627;42.728;23.256;2023-04-29T02:21:50;10.48;;;5.10;;
57800;SDS011;43627;42.728;23.256;2023-04-29T02:24:17;13.63;;;5.68;;
57800;SDS011;43627;42.728;23.256;2023-04-29T02:26:43;9.60;;;5.15;;
57800;SDS011;43627;42.728;23.256;2023-04-29T02:29:11;11.48;;;5.25;;
57800;SDS011;43627;42.728;23.256;2023-04-29T02:31:37;9.30;;;5.07;;
57800;SDS011;43627;42.728;23.256;2023-04-29T02:34:04;11.45;;;6.22;;
57800;SDS011;43627;42.728;23.256;2023-04-29T02:36:31;14.02;;;5.35;;
57800;SDS011;43627;42.728;23.256;2023-04-29T02:38:58;9.65;;;5.95;;
57800;SDS011;43627;42.728;23.256;2023-04-29T02:41:25;7.68;;;4.25;;
57800;SDS011;43627;42.728;23.256;2023-04-29T02:43:52;9.20;;;4.78;;
57800;SDS011;43627;42.728;23.256;2023-04-29T02:46:19;12.32;;;5.70;;
57800;SDS011;43627;42.728;23.256;2023-04-29T02:48:46;9.48;;;4.88;;
57800;SDS011;43627;42.728;23.256;2023-04-29T02:51:12;12.75;;;4.60;;
57800;SDS011;43627;42.728;23.256;2023-04-29T02:53:40;8.40;;;4.13;;
57800;SDS011;43627;42.728;23.256;2023-04-29T02:56:06;12.13;;;4.03;;
57800;SDS011;43627;42.728;23.256;2023-04-29T02:58:33;9.93;;;4.55;;
57800;SDS011;43627;42.728;23.256;2023-04-29T03:01:00;7.88;;;4.18;;
57800;SDS011;43627;42.728;23.256;2023-04-29T03:03:26;6.50;;;4.18;;
57800;SDS011;43627;42.728;23.256;2023-04-29T03:05:53;10.43;;;5.20;;
57800;SDS011;43627;42.728;23.256;2023-04-29T03:08:20;8.38;;;4.32;;
57800;SDS011;43627;42.728;23.256;2023-04-29T03:10:47;11.23;;;4.72;;
57800;SDS011;43627;42.728;23.256;2023-04-29T03:13:14;9.20;;;4.18;;
57800;SDS011;43627;42.728;23.256;2023-04-29T03:15:41;11.15;;;4.90;;
57800;SDS011;43627;42.728;23.256;2023-04-29T03:18:07;12.38;;;4.88;;
57800;SDS011;43627;42.728;23.256;2023-04-29T03:20:35;8.75;;;5.00;;
57800;SDS011;43627;42.728;23.256;2023-04-29T03:23:02;7.80;;;4.13;;
57800;SDS011;43627;42.728;23.256;2023-04-29T03:25:29;16.77;;;3.97;;
57800;SDS011;43627;42.728;23.256;2023-04-29T03:27:56;8.20;;;4.20;;
57800;SDS011;43627;42.728;23.256;2023-04-29T03:30:23;8.10;;;4.18;;
57800;SDS011;43627;42.728;23.256;2023-04-29T03:32:50;10.18;;;4.70;;
57800;SDS011;43627;42.728;23.256;2023-04-29T03:35:16;8.35;;;4.20;;
57800;SDS011;43627;42.728;23.256;2023-04-29T03:37:43;7.55;;;4.13;;
57800;SDS011;43627;42.728;23.256;2023-04-29T03:40:10;9.82;;;3.92;;
57800;SDS011;43627;42.728;23.256;2023-04-29T03:42:38;10.50;;;5.10;;
57800;SDS011;43627;42.728;23.256;2023-04-29T03:45:05;11.65;;;4.75;;
57800;SDS011;43627;42.728;23.256;2023-04-29T03:47:32;7.90;;;3.85;;
57800;SDS011;43627;42.728;23.256;2023-04-29T03:49:59;8.07;;;4.10;;
57800;SDS011;43627;42.728;23.256;2023-04-29T03:52:25;9.07;;;4.10;;
57800;SDS011;43627;42.728;23.256;2023-04-29T03:54:52;10.73;;;4.82;;
57800;SDS011;43627;42.728;23.256;2023-04-29T03:57:19;8.95;;;4.35;;
57800;SDS011;43627;42.728;23.256;2023-04-29T03:59:46;16.50;;;4.43;;
57800;SDS011;43627;42.728;23.256;2023-04-29T04:02:16;11.88;;;4.18;;
57800;SDS011;43627;42.728;23.256;2023-04-29T04:04:43;12.27;;;4.40;;
57800;SDS011;43627;42.728;23.256;2023-04-29T04:07:10;7.95;;;4.10;;
57800;SDS011;43627;42.728;23.256;2023-04-29T04:09:39;9.77;;;4.72;;
57800;SDS011;43627;42.728;23.256;2023-04-29T04:12:06;10.73;;;5.95;;
57800;SDS011;43627;42.728;23.256;2023-04-29T04:14:33;17.13;;;8.27;;
57800;SDS011;43627;42.728;23.256;2023-04-29T04:16:59;12.23;;;6.38;;
57800;SDS011;43627;42.728;23.256;2023-04-29T04:19:26;13.05;;;5.78;;
57800;SDS011;43627;42.728;23.256;2023-04-29T04:21:54;10.57;;;5.18;;
57800;SDS011;43627;42.728;23.256;2023-04-29T04:24:21;9.57;;;4.55;;
57800;SDS011;43627;42.728;23.256;2023-04-29T04:26:48;7.00;;;3.95;;
57800;SDS011;43627;42.728;23.256;2023-04-29T04:29:15;10.85;;;3.78;;
57800;SDS011;43627;42.728;23.256;2023-04-29T04:31:42;14.23;;;5.15;;
57800;SDS011;43627;42.728;23.256;2023-04-29T04:34:12;10.13;;;4.05;;
57800;SDS011;43627;42.728;23.256;2023-04-29T04:36:38;10.38;;;4.13;;
57800;SDS011;43627;42.728;23.256;2023-04-29T04:39:06;6.20;;;3.40;;
57800;SDS011;43627;42.728;23.256;2023-04-29T04:41:33;13.55;;;4.72;;
57800;SDS011;43627;42.728;23.256;2023-04-29T04:44:01;13.50;;;4.88;;
57800;SDS011;43627;42.728;23.256;2023-04-29T04:46:28;9.95;;;4.28;;
57800;SDS011;43627;42.728;23.256;2023-04-29T04:48:55;14.90;;;4.70;;
57800;SDS011;43627;42.728;23.256;2023-04-29T04:51:21;13.35;;;4.75;;
57800;SDS011;43627;42.728;23.256;2023-04-29T04:53:48;9.48;;;3.75;;
57800;SDS011;43627;42.728;23.256;2023-04-29T04:56:15;6.30;;;3.70;;
57800;SDS011;43627;42.728;23.256;2023-04-29T04:58:41;13.07;;;4.50;;
57800;SDS011;43627;42.728;23.256;2023-04-29T05:01:08;6.22;;;3.35;;
57800;SDS011;43627;42.728;23.256;2023-04-29T05:03:35;12.15;;;3.47;;
57800;SDS011;43627;42.728;23.256;2023-04-29T05:06:02;8.80;;;3.00;;
57800;SDS011;43627;42.728;23.256;2023-04-29T05:08:29;6.70;;;3.53;;
57800;SDS011;43627;42.728;23.256;2023-04-29T05:10:56;6.80;;;3.67;;
57800;SDS011;43627;42.728;23.256;2023-04-29T05:13:23;11.23;;;3.20;;
57800;SDS011;43627;42.728;23.256;2023-04-29T05:15:53;12.50;;;3.60;;
57800;SDS011;43627;42.728;23.256;2023-04-29T05:18:20;8.73;;;3.30;;
57800;SDS011;43627;42.728;23.256;2023-04-29T05:20:46;10.43;;;3.88;;
57800;SDS011;43627;42.728;23.256;2023-04-29T05:23:13;12.05;;;4.55;;
57800;SDS011;43627;42.728;23.256;2023-04-29T05:25:40;16.65;;;5.38;;
57800;SDS011;43627;42.728;23.256;2023-04-29T05:28:07;9.20;;;4.03;;
57800;SDS011;43627;42.728;23.256;2023-04-29T05:30:34;16.80;;;5.07;;
57800;SDS011;43627;42.728;23.256;2023-04-29T05:33:01;14.57;;;4.57;;
57800;SDS011;43627;42.728;23.256;2023-04-29T05:35:28;7.78;;;3.75;;
57800;SDS011;43627;42.728;23.256;2023-04-29T05:37:56;8.13;;;3.42;;
57800;SDS011;43627;42.728;23.256;2023-04-29T05:40:23;6.57;;;3.40;;
57800;SDS011;43627;42.728;23.256;2023-04-29T05:42:50;5.85;;;3.35;;
57800;SDS011;43627;42.728;23.256;2023-04-29T05:45:17;6.32;;;3.35;;
57800;SDS011;43627;42.728;23.256;2023-04-29T05:47:44;10.27;;;3.70;;
57800;SDS011;43627;42.728;23.256;2023-04-29T05:50:11;8.10;;;3.58;;
57800;SDS011;43627;42.728;23.256;2023-04-29T05:52:38;10.85;;;4.53;;
57800;SDS011;43627;42.728;23.256;2023-04-29T05:55:05;15.30;;;6.75;;
57800;SDS011;43627;42.728;23.256;2023-04-29T05:57:31;8.68;;;3.63;;
57800;SDS011;43627;42.728;23.256;2023-04-29T05:59:58;18.17;;;5.60;;
57800;SDS011;43627;42.728;23.256;2023-04-29T06:02:25;8.50;;;4.25;;
57800;SDS011;43627;42.728;23.256;2023-04-29T06:04:53;10.70;;;4.63;;
57800;SDS011;43627;42.728;23.256;2023-04-29T06:07:20;8.48;;;4.28;;
57800;SDS011;43627;42.728;23.256;2023-04-29T06:09:47;10.00;;;4.80;;
57800;SDS011;43627;42.728;23.256;2023-04-29T06:12:13;6.43;;;3.75;;
57800;SDS011;43627;42.728;23.256;2023-04-29T06:14:40;8.23;;;4.75;;
57800;SDS011;43627;42.728;23.256;2023-04-29T06:17:07;7.38;;;4.60;;
57800;SDS011;43627;42.728;23.256;2023-04-29T06:19:34;11.07;;;4.60;;
57800;SDS011;43627;42.728;23.256;2023-04-29T06:22:01;9.25;;;4.18;;
57800;SDS011;43627;42.728;23.256;2023-04-29T06:24:27;11.05;;;4.00;;
57800;SDS011;43627;42.728;23.256;2023-04-29T06:26:54;11.32;;;4.07;;
57800;SDS011;43627;42.728;23.256;2023-04-29T06:29:21;7.65;;;4.50;;
57800;SDS011;43627;42.728;23.256;2023-04-29T06:31:48;5.32;;;3.20;;
57800;SDS011;43627;42.728;23.256;2023-04-29T06:34:15;9.50;;;3.67;;
57800;SDS011;43627;42.728;23.256;2023-04-29T06:36:41;6.22;;;3.70;;
57800;SDS011;43627;42.728;23.256;2023-04-29T06:39:08;6.13;;;3.47;;
57800;SDS011;43627;42.728;23.256;2023-04-29T06:41:35;6.18;;;3.60;;
57800;SDS011;43627;42.728;23.256;2023-04-29T06:44:02;4.72;;;3.45;;
57800;SDS011;43627;42.728;23.256;2023-04-29T06:46:28;7.55;;;3.38;;
57800;SDS011;43627;42.728;23.256;2023-04-29T06:48:55;8.30;;;3.47;;
57800;SDS011;43627;42.728;23.256;2023-04-29T06:51:22;7.03;;;3.90;;
57800;SDS011;43627;42.728;23.256;2023-04-29T06:53:50;7.50;;;3.17;;
57800;SDS011;43627;42.728;23.256;2023-04-29T06:56:17;6.55;;;3.50;;
57800;SDS011;43627;42.728;23.256;2023-04-29T06:58:44;8.25;;;3.88;;
57800;SDS011;43627;42.728;23.256;2023-04-29T07:01:10;7.18;;;3.72;;
57800;SDS011;43627;42.728;23.256;2023-04-29T07:03:37;6.60;;;3.88;;
57800;SDS011;43627;42.728;23.256;2023-04-29T07:06:04;9.52;;;3.38;;
57800;SDS011;43627;42.728;23.256;2023-04-29T07:08:32;7.90;;;3.15;;
57800;SDS011;43627;42.728;23.256;2023-04-29T07:10:58;10.35;;;4.40;;
57800;SDS011;43627;42.728;23.256;2023-04-29T07:13:25;6.22;;;3.70;;
57800;SDS011;43627;42.728;23.256;2023-04-29T07:15:52;6.90;;;4.22;;
57800;SDS011;43627;42.728;23.256;2023-04-29T07:18:18;9.00;;;3.95;;
57800;SDS011;43627;42.728;23.256;2023-04-29T07:20:45;12.75;;;4.38;;
57800;SDS011;43627;42.728;23.256;2023-04-29T07:23:13;7.03;;;4.22;;
57800;SDS011;43627;42.728;23.256;2023-04-29T07:25:40;17.45;;;3.85;;
57800;SDS011;43627;42.728;23.256;2023-04-29T07:28:07;9.05;;;3.78;;
57800;SDS011;43627;42.728;23.256;2023-04-29T07:30:34;8.75;;;3.83;;
57800;SDS011;43627;42.728;23.256;2023-04-29T07:33:01;6.75;;;3.67;;
57800;SDS011;43627;42.728;23.256;2023-04-29T07:35:29;10.32;;;5.13;;
57800;SDS011;43627;42.728;23.256;2023-04-29T07:37:56;6.55;;;4.15;;
57800;SDS011;43627;42.728;23.256;2023-04-29T07:40:23;14.68;;;4.57;;
57800;SDS011;43627;42.728;23.256;2023-04-29T07:42:50;6.00;;;4.07;;
57800;SDS011;43627;42.728;23.256;2023-04-29T07:45:17;8.20;;;3.97;;
57800;SDS011;43627;42.728;23.256;2023-04-29T07:47:43;9.60;;;4.72;;
57800;SDS011;43627;42.728;23.256;2023-04-29T07:50:11;12.02;;;4.10;;
57800;SDS011;43627;42.728;23.256;2023-04-29T07:52:38;9.68;;;4.80;;
57800;SDS011;43627;42.728;23.256;2023-04-29T07:55:05;6.30;;;3.90;;
57800;SDS011;43627;42.728;23.256;2023-04-29T07:57:31;10.80;;;5.43;;
57800;SDS011;43627;42.728;23.256;2023-04-29T07:59:58;7.68;;;4.35;;
57800;SDS011;43627;42.728;23.256;2023-04-29T08:02:25;10.25;;;4.22;;
57800;SDS011;43627;42.728;23.256;2023-04-29T08:04:52;9.18;;;4.13;;
57800;SDS011;43627;42.728;23.256;2023-04-29T08:07:21;7.68;;;3.67;;
57800;SDS011;43627;42.728;23.256;2023-04-29T08:09:48;4.85;;;3.25;;
57800;SDS011;43627;42.728;23.256;2023-04-29T08:12:15;9.32;;;4.40;;
57800;SDS011;43627;42.728;23.256;2023-04-29T08:14:41;8.07;;;3.63;;
57800;SDS011;43627;42.728;23.256;2023-04-29T08:17:08;6.68;;;3.70;;
57800;SDS011;43627;42.728;23.256;2023-04-29T08:19:35;7.68;;;3.58;;
57800;SDS011;43627;42.728;23.256;2023-04-29T08:22:02;7.43;;;3.15;;
57800;SDS011;43627;42.728;23.256;2023-04-29T08:24:29;11.65;;;3.70;;
57800;SDS011;43627;42.728;23.256;2023-04-29T08:26:56;8.40;;;4.25;;
57800;SDS011;43627;42.728;23.256;2023-04-29T08:29:24;9.10;;;3.15;;
57800;SDS011;43627;42.728;23.256;2023-04-29T08:31:51;9.63;;;4.35;;
57800;SDS011;43627;42.728;23.256;2023-04-29T08:34:18;5.53;;;2.80;;
57800;SDS011;43627;42.728;23.256;2023-04-29T08:36:45;4.78;;;2.97;;
57800;SDS011;43627;42.728;23.256;2023-04-29T08:39:11;8.68;;;3.58;;
57800;SDS011;43627;42.728;23.256;2023-04-29T08:41:38;9.98;;;3.13;;
57800;SDS011;43627;42.728;23.256;2023-04-29T08:44:05;9.48;;;3.53;;
57800;SDS011;43627;42.728;23.256;2023-04-29T08:46:32;7.65;;;4.47;;
57800;SDS011;43627;42.728;23.256;2023-04-29T08:49:00;9.05;;;4.07;;
57800;SDS011;43627;42.728;23.256;2023-04-29T08:51:29;4.78;;;3.13;;
57800;SDS011;43627;42.728;23.256;2023-04-29T08:53:58;6.07;;;3.50;;
57800;SDS011;43627;42.728;23.256;2023-04-29T08:56:25;13.18;;;3.53;;
57800;SDS011;43627;42.728;23.256;2023-04-29T08:58:54;19.25;;;4.00;;
57800;SDS011;43627;42.728;23.256;2023-04-29T09:01:25;6.40;;;3.28;;
57800;SDS011;43627;42.728;23.256;2023-04-29T09:06:35;9.05;;;3.08;;
57800;SDS011;43627;42.728;23.256;2023-04-29T09:09:02;7.32;;;3.42;;
57800;SDS011;43627;42.728;23.256;2023-04-29T09:11:29;6.05;;;3.20;;
57800;SDS011;43627;42.728;23.256;2023-04-29T09:13:59;6.95;;;2.80;;
57800;SDS011;43627;42.728;23.256;2023-04-29T09:16:27;10.60;;;3.50;;
57800;SDS011;43627;42.728;23.256;2023-04-29T09:18:54;8.90;;;2.70;;
57800;SDS011;43627;42.728;23.256;2023-04-29T09:21:23;6.13;;;3.30;;
57800;SDS011;43627;42.728;23.256;2023-04-29T09:23:51;6.18;;;3.50;;
57800;SDS011;43627;42.728;23.256;2023-04-29T09:26:20;7.68;;;3.05;;
57800;SDS011;43627;42.728;23.256;2023-04-29T09:29:04;8.40;;;3.00;;
57800;SDS011;43627;42.728;23.256;2023-04-29T09:31:31;8.48;;;4.38;;
57800;SDS011;43627;42.728;23.256;2023-04-29T09:33:57;4.85;;;2.70;;
57800;SDS011;43627;42.728;23.256;2023-04-29T09:39:14;11.27;;;2.63;;
57800;SDS011;43627;42.728;23.256;2023-04-29T09:44:15;5.20;;;2.75;;
57800;SDS011;43627;42.728;23.256;2023-04-29T09:46:42;6.65;;;3.25;;
57800;SDS011;43627;42.728;23.256;2023-04-29T09:49:22;5.95;;;2.55;;
57800;SDS011;43627;42.728;23.256;2023-04-29T09:51:54;5.80;;;2.53;;
57800;SDS011;43627;42.728;23.256;2023-04-29T09:54:23;5.68;;;2.80;;
57800;SDS011;43627;42.728;23.256;2023-04-29T09:56:51;3.47;;;2.03;;
57800;SDS011;43627;42.728;23.256;2023-04-29T09:59:19;16.15;;;5.75;;
57800;SDS011;43627;42.728;23.256;2023-04-29T10:01:50;7.72;;;2.50;;
57800;SDS011;43627;42.728;23.256;2023-04-29T10:04:19;6.47;;;3.40;;
57800;SDS011;43627;42.728;23.256;2023-04-29T10:06:48;5.88;;;2.22;;
57800;SDS011;43627;42.728;23.256;2023-04-29T10:09:17;9.52;;;2.80;;
57800;SDS011;43627;42.728;23.256;2023-04-29T10:11:45;3.72;;;1.90;;
57800;SDS011;43627;42.728;23.256;2023-04-29T10:14:16;7.88;;;2.15;;
57800;SDS011;43627;42.728;23.256;2023-04-29T10:16:48;5.65;;;2.30;;
57800;SDS011;43627;42.728;23.256;2023-04-29T10:19:24;8.50;;;2.55;;
57800;SDS011;43627;42.728;23.256;2023-04-29T10:21:54;4.97;;;2.20;;
57800;SDS011;43627;42.728;23.256;2023-04-29T10:24:25;5.20;;;1.90;;
57800;SDS011;43627;42.728;23.256;2023-04-29T10:26:52;5.38;;;1.65;;
57800;SDS011;43627;42.728;23.256;2023-04-29T10:29:21;6.07;;;1.83;;
57800;SDS011;43627;42.728;23.256;2023-04-29T10:31:52;6.22;;;2.85;;
57800;SDS011;43627;42.728;23.256;2023-04-29T10:34:21;4.78;;;1.60;;
57800;SDS011;43627;42.728;23.256;2023-04-29T10:36:49;7.65;;;2.38;;
57800;SDS011;43627;42.728;23.256;2023-04-29T10:39:26;8.23;;;3.30;;
57800;SDS011;43627;42.728;23.256;2023-04-29T10:42:01;4.85;;;2.67;;
57800;SDS011;43627;42.728;23.256;2023-04-29T10:44:31;7.88;;;1.70;;
57800;SDS011;43627;42.728;23.256;2023-04-29T10:50:03;3.35;;;1.73;;
57800;SDS011;43627;42.728;23.256;2023-04-29T10:52:41;7.30;;;2.15;;
57800;SDS011;43627;42.728;23.256;2023-04-29T10:55:16;3.95;;;1.52;;
57800;SDS011;43627;42.728;23.256;2023-04-29T10:57:43;6.50;;;1.55;;
57800;SDS011;43627;42.728;23.256;2023-04-29T11:00:20;2.80;;;1.42;;
57800;SDS011;43627;42.728;23.256;2023-04-29T11:02:54;2.40;;;1.50;;
57800;SDS011;43627;42.728;23.256;2023-04-29T11:05:32;4.75;;;2.92;;
57800;SDS011;43627;42.728;23.256;2023-04-29T11:08:09;5.10;;;1.88;;
57800;SDS011;43627;42.728;23.256;2023-04-29T11:10:51;5.30;;;1.48;;
57800;SDS011;43627;42.728;23.256;2023-04-29T11:13:20;3.22;;;1.33;;
57800;SDS011;43627;42.728;23.256;2023-04-29T11:15:47;3.33;;;1.45;;
57800;SDS011;43627;42.728;23.256;2023-04-29T11:18:14;2.35;;;1.10;;
57800;SDS011;43627;42.728;23.256;2023-04-29T11:23:32;5.25;;;1.67;;
57800;SDS011;43627;42.728;23.256;2023-04-29T11:26:00;5.10;;;1.65;;
57800;SDS011;43627;42.728;23.256;2023-04-29T11:28:28;3.70;;;1.05;;
57800;SDS011;43627;42.728;23.256;2023-04-29T11:30:56;2.70;;;1.20;;
57800;SDS011;43627;42.728;23.256;2023-04-29T11:33:24;4.32;;;0.70;;
57800;SDS011;43627;42.728;23.256;2023-04-29T11:35:55;2.58;;;1.40;;
57800;SDS011;43627;42.728;23.256;2023-04-29T11:38:25;2.20;;;0.88;;
57800;SDS011;43627;42.728;23.256;2023-04-29T11:40:56;2.45;;;0.50;;
57800;SDS011;43627;42.728;23.256;2023-04-29T11:43:24;3.80;;;1.33;;
57800;SDS011;43627;42.728;23.256;2023-04-29T11:45:51;2.30;;;0.73;;
57800;SDS011;43627;42.728;23.256;2023-04-29T11:48:19;2.28;;;1.13;;
57800;SDS011;43627;42.728;23.256;2023-04-29T11:50:54;2.10;;;1.15;;
57800;SDS011;43627;42.728;23.256;2023-04-29T11:53:24;2.47;;;1.27;;
57800;SDS011;43627;42.728;23.256;2023-04-29T11:55:53;4.85;;;1.00;;
57800;SDS011;43627;42.728;23.256;2023-04-29T11:58:20;2.85;;;0.98;;
57800;SDS011;43627;42.728;23.256;2023-04-29T12:00:48;3.22;;;1.10;;
57800;SDS011;43627;42.728;23.256;2023-04-29T12:03:17;1.48;;;1.05;;
57800;SDS011;43627;42.728;23.256;2023-04-29T12:08:13;6.47;;;1.15;;
57800;SDS011;43627;42.728;23.256;2023-04-29T12:10:40;1.67;;;1.05;;
57800;SDS011;43627;42.728;23.256;2023-04-29T12:13:06;1.90;;;0.90;;
57800;SDS011;43627;42.728;23.256;2023-04-29T12:15:35;2.45;;;1.02;;
57800;SDS011;43627;42.728;23.256;2023-04-29T12:18:05;3.88;;;0.93;;
57800;SDS011;43627;42.728;23.256;2023-04-29T12:20:32;2.30;;;1.10;;
57800;SDS011;43627;42.728;23.256;2023-04-29T12:23:15;2.35;;;0.88;;
57800;SDS011;43627;42.728;23.256;2023-04-29T12:25:52;1.20;;;0.60;;
57800;SDS011;43627;42.728;23.256;2023-04-29T12:28:21;3.78;;;1.30;;
57800;SDS011;43627;42.728;23.256;2023-04-29T12:30:48;1.20;;;0.70;;
57800;SDS011;43627;42.728;23.256;2023-04-29T12:33:20;4.63;;;1.25;;
57800;SDS011;43627;42.728;23.256;2023-04-29T12:35:51;1.60;;;1.20;;
57800;SDS011;43627;42.728;23.256;2023-04-29T12:38:21;1.05;;;0.90;;
57800;SDS011;43627;42.728;23.256;2023-04-29T12:40:55;1.60;;;0.93;;
57800;SDS011;43627;42.728;23.256;2023-04-29T12:43:28;2.60;;;1.00;;
57800;SDS011;43627;42.728;23.256;2023-04-29T12:46:02;2.30;;;1.08;;
57800;SDS011;43627;42.728;23.256;2023-04-29T12:48:30;2.13;;;0.93;;
57800;SDS011;43627;42.728;23.256;2023-04-29T12:50:59;2.13;;;0.98;;
57800;SDS011;43627;42.728;23.256;2023-04-29T12:53:30;1.35;;;0.90;;
57800;SDS011;43627;42.728;23.256;2023-04-29T12:55:57;4.50;;;1.02;;
57800;SDS011;43627;42.728;23.256;2023-04-29T12:58:27;3.10;;;1.10;;
57800;SDS011;43627;42.728;23.256;2023-04-29T13:00:55;1.60;;;0.88;;
57800;SDS011;43627;42.728;23.256;2023-04-29T13:03:22;1.98;;;1.23;;
57800;SDS011;43627;42.728;23.256;2023-04-29T13:05:50;1.42;;;0.90;;
57800;SDS011;43627;42.728;23.256;2023-04-29T13:08:19;1.40;;;1.00;;
57800;SDS011;43627;42.728;23.256;2023-04-29T13:10:46;1.85;;;1.08;;
57800;SDS011;43627;42.728;23.256;2023-04-29T13:13:13;2.55;;;1.00;;
57800;SDS011;43627;42.728;23.256;2023-04-29T13:15:39;2.95;;;0.98;;
57800;SDS011;43627;42.728;23.256;2023-04-29T13:18:06;3.08;;;1.52;;
57800;SDS011;43627;42.728;23.256;2023-04-29T13:20:33;2.35;;;0.93;;
57800;SDS011;43627;42.728;23.256;2023-04-29T13:23:07;1.58;;;1.20;;
57800;SDS011;43627;42.728;23.256;2023-04-29T13:25:33;1.52;;;1.42;;
57800;SDS011;43627;42.728;23.256;2023-04-29T13:28:00;1.35;;;0.80;;
57800;SDS011;43627;42.728;23.256;2023-04-29T13:30:27;3.08;;;1.10;;
57800;SDS011;43627;42.728;23.256;2023-04-29T13:32:54;3.20;;;0.75;;
57800;SDS011;43627;42.728;23.256;2023-04-29T13:35:29;3.80;;;1.10;;
57800;SDS011;43627;42.728;23.256;2023-04-29T13:37:56;4.82;;;1.02;;
57800;SDS011;43627;42.728;23.256;2023-04-29T13:40:22;4.80;;;1.30;;
57800;SDS011;43627;42.728;23.256;2023-04-29T13:42:53;4.32;;;1.20;;
57800;SDS011;43627;42.728;23.256;2023-04-29T13:45:31;2.22;;;1.00;;
57800;SDS011;43627;42.728;23.256;2023-04-29T13:48:05;4.30;;;1.00;;
57800;SDS011;43627;42.728;23.256;2023-04-29T13:50:51;0.63;;;0.50;;
57800;SDS011;43627;42.728;23.256;2023-04-29T13:53:20;0.50;;;0.40;;
57800;SDS011;43627;42.728;23.256;2023-04-29T13:56:07;1.83;;;0.65;;
57800;SDS011;43627;42.728;23.256;2023-04-29T13:58:37;2.20;;;0.52;;
57800;SDS011;43627;42.728;23.256;2023-04-29T14:01:23;1.30;;;0.80;;
57800;SDS011;43627;42.728;23.256;2023-04-29T14:04:10;2.83;;;0.93;;
57800;SDS011;43627;42.728;23.256;2023-04-29T14:06:37;1.90;;;0.95;;
57800;SDS011;43627;42.728;23.256;2023-04-29T14:09:04;1.27;;;0.73;;
57800;SDS011;43627;42.728;23.256;2023-04-29T14:11:31;1.15;;;0.60;;
57800;SDS011;43627;42.728;23.256;2023-04-29T14:14:02;2.42;;;1.17;;
57800;SDS011;43627;42.728;23.256;2023-04-29T14:16:29;5.00;;;1.00;;
57800;SDS011;43627;42.728;23.256;2023-04-29T14:18:56;1.17;;;0.73;;
57800;SDS011;43627;42.728;23.256;2023-04-29T14:21:22;1.00;;;0.50;;
57800;SDS011;43627;42.728;23.256;2023-04-29T14:23:49;2.88;;;1.45;;
57800;SDS011;43627;42.728;23.256;2023-04-29T14:26:16;1.48;;;0.70;;
57800;SDS011;43627;42.728;23.256;2023-04-29T14:28:56;9.45;;;1.30;;
57800;SDS011;43627;42.728;23.256;2023-04-29T14:31:25;2.28;;;1.25;;
57800;SDS011;43627;42.728;23.256;2023-04-29T14:33:57;3.15;;;1.08;;
57800;SDS011;43627;42.728;23.256;2023-04-29T14:36:24;1.55;;;0.90;;
57800;SDS011;43627;42.728;23.256;2023-04-29T14:38:54;2.13;;;1.33;;
57800;SDS011;43627;42.728;23.256;2023-04-29T14:41:21;1.52;;;1.20;;
57800;SDS011;43627;42.728;23.256;2023-04-29T14:43:47;2.17;;;1.13;;
57800;SDS011;43627;42.728;23.256;2023-04-29T14:46:14;3.50;;;1.55;;
57800;SDS011;43627;42.728;23.256;2023-04-29T14:48:42;2.00;;;1.45;;
57800;SDS011;43627;42.728;23.256;2023-04-29T14:51:08;4.50;;;1.50;;
57800;SDS011;43627;42.728;23.256;2023-04-29T14:53:35;3.25;;;1.52;;
57800;SDS011;43627;42.728;23.256;2023-04-29T14:56:02;2.60;;;1.95;;
57800;SDS011;43627;42.728;23.256;2023-04-29T14:58:29;6.00;;;1.83;;
57800;SDS011;43627;42.728;23.256;2023-04-29T15:00:56;2.08;;;1.20;;
57800;SDS011;43627;42.728;23.256;2023-04-29T15:03:22;4.45;;;2.08;;